createdAt,value
2022-09-05T00:02:07.067Z,99557.25
2022-09-05T00:05:21.942Z,99552.09
2022-09-05T00:08:13.302Z,99549.75
2022-09-05T00:11:39.504Z,99555.69
2022-09-05T00:15:15.042Z,99547.75
2022-09-05T00:21:40.147Z,99543.03
2022-09-05T00:24:32.275Z,99542.63
2022-09-05T00:25:32.008Z,99545.03
2022-09-05T00:28:26.375Z,99543.44
2022-09-05T00:31:54.778Z,99530.75
2022-09-05T00:34:47.812Z,99541.03
2022-09-05T00:37:41.788Z,99535.91
2022-09-05T00:40:37.652Z,99542.66
2022-09-05T00:43:36.934Z,99538.31
2022-09-05T00:46:27.045Z,99540.28
2022-09-05T00:49:29.815Z,99534.72
2022-09-05T00:52:28.729Z,99540.28
2022-09-05T00:55:39.145Z,99534.72
2022-09-05T00:58:52.667Z,99539.50
2022-09-05T01:01:53.449Z,99539.50
2022-09-05T01:04:44.165Z,99538.34
2022-09-05T01:07:48.583Z,99547.47
2022-09-05T01:10:41.804Z,99544.31
2022-09-05T01:13:43.128Z,99543.53
2022-09-05T01:16:37.686Z,99550.66
2022-09-05T01:19:44.602Z,99549.84
2022-09-05T01:22:39.105Z,99548.28
2022-09-05T01:25:44.128Z,99550.28
2022-09-05T01:29:16.145Z,99545.16
2022-09-05T01:32:19.878Z,99545.91
2022-09-05T01:35:36.452Z,99557.03
2022-09-05T01:38:30.228Z,99547.13
2022-09-05T01:41:37.743Z,99545.91
2022-09-05T01:44:38.311Z,99554.69
2022-09-05T01:47:58.040Z,99546.34
2022-09-05T01:51:29.110Z,99547.53
2022-09-05T01:54:24.465Z,99549.91
2022-09-05T01:57:43.040Z,99557.88
2022-09-05T02:01:25.379Z,99556.28
2022-09-05T02:04:28.511Z,99554.69
2022-09-05T02:07:30.848Z,99557.09
2022-09-05T02:10:51.232Z,99550.72
2022-09-05T02:13:36.737Z,99548.38
2022-09-05T02:16:55.311Z,99551.16
2022-09-05T02:19:50.833Z,99550.72
2022-09-05T02:22:46.529Z,99548.38
2022-09-05T02:26:02.440Z,99546.78
2022-09-05T02:29:03.296Z,99554.34
2022-09-05T02:31:53.894Z,99549.56
2022-09-05T02:34:58.987Z,99553.56
2022-09-05T02:41:44.270Z,99552.78
2022-09-05T02:45:09.111Z,99548.00
2022-09-05T02:45:19.430Z,99550.78
2022-09-05T02:48:18.281Z,99550.00
2022-09-05T02:57:29.247Z,99549.19
2022-09-05T02:58:06.291Z,99553.97
2022-09-05T02:58:08.922Z,99554.75
2022-09-05T03:01:09.817Z,99554.75
2022-09-05T03:04:27.423Z,99551.59
2022-09-05T03:07:45.926Z,99542.91
2022-09-05T03:11:12.130Z,99550.03
2022-09-05T03:14:19.358Z,99547.66
2022-09-05T03:17:19.985Z,99541.31
2022-09-05T03:21:08.938Z,99538.53
2022-09-05T03:24:32.512Z,99542.53
2022-09-05T03:27:17.792Z,99535.38
2022-09-05T03:30:15.496Z,99544.13
2022-09-05T03:33:22.641Z,99545.34
2022-09-05T03:36:32.515Z,99550.91
2022-09-05T03:39:33.500Z,99544.19
2022-09-05T03:42:53.578Z,99560.84
2022-09-05T03:45:42.865Z,99550.53
2022-09-05T03:48:36.802Z,99553.31
2022-09-05T03:57:20.205Z,99548.53
2022-09-05T03:57:27.107Z,99550.13
2022-09-05T03:58:18.402Z,99543.81
2022-09-05T04:04:45.584Z,99546.97
2022-09-05T04:08:07.035Z,99545.38
2022-09-05T04:08:15.656Z,99550.13
2022-09-05T04:11:09.113Z,99544.94
2022-09-05T04:14:03.455Z,99549.28
2022-09-05T04:16:52.799Z,99547.25
2022-09-05T04:19:49.895Z,99559.13
2022-09-05T04:23:17.272Z,99550.78
2022-09-05T04:26:12.495Z,99547.13
2022-09-05T04:29:05.388Z,99552.25
2022-09-05T04:32:15.445Z,99549.84
2022-09-05T04:35:19.178Z,99554.63
2022-09-05T04:38:15.460Z,99560.19
2022-09-05T04:41:09.934Z,99556.22
2022-09-05T04:44:16.164Z,99559.78
2022-09-05T04:47:11.673Z,99567.34
2022-09-05T04:50:12.072Z,99566.97
2022-09-05T04:53:20.022Z,99558.66
2022-09-05T04:56:15.445Z,99565.03
2022-09-05T05:04:30.850Z,99571.03
2022-09-05T05:06:17.932Z,99569.09
2022-09-05T05:06:19.737Z,99564.31
2022-09-05T05:09:02.723Z,99565.94
2022-09-05T05:17:54.982Z,99558.84
2022-09-05T05:18:11.988Z,99562.41
2022-09-05T05:18:38.675Z,99563.25
2022-09-05T05:21:34.405Z,99561.66
2022-09-05T05:24:35.429Z,99564.44
2022-09-05T05:27:28.382Z,99564.84
2022-09-05T05:30:25.833Z,99573.19
2022-09-05T05:33:31.522Z,99572.41
2022-09-05T05:36:33.861Z,99573.97
2022-09-05T05:39:26.245Z,99575.19
2022-09-05T05:42:23.395Z,99581.91
2022-09-05T05:45:30.878Z,99580.72
2022-09-05T05:48:19.541Z,99580.34
2022-09-05T05:51:34.506Z,99573.59
2022-09-05T05:54:28.348Z,99577.19
2022-09-05T05:57:42.997Z,99578.38
2022-09-05T06:01:02.359Z,99573.63
2022-09-05T06:04:05.937Z,99572.44
2022-09-05T06:07:09.781Z,99577.97
2022-09-05T06:14:51.435Z,99575.59
2022-09-05T06:14:55.063Z,99582.38
2022-09-05T06:17:20.741Z,99574.03
2022-09-05T06:22:04.076Z,99575.66
2022-09-05T06:24:16.908Z,99582.00
2022-09-05T06:27:25.735Z,99575.28
2022-09-05T06:30:19.410Z,99585.94
2022-09-05T06:33:16.748Z,99581.63
2022-09-05T06:36:14.175Z,99585.94
2022-09-05T06:39:35.834Z,99580.41
2022-09-05T06:43:01.397Z,99592.31
2022-09-05T06:45:58.921Z,99582.78
2022-09-05T06:49:33.376Z,99583.19
2022-09-05T06:52:29.720Z,99580.44
2022-09-05T06:55:40.152Z,99583.59
2022-09-05T06:58:53.739Z,99587.16
2022-09-05T07:02:00.449Z,99590.75
2022-09-05T07:05:37.908Z,99594.31
2022-09-05T07:08:35.847Z,99599.06
2022-09-05T07:11:45.512Z,99594.72
2022-09-05T07:14:36.841Z,99590.75
2022-09-05T07:18:08.626Z,99590.31
2022-09-05T07:21:18.138Z,99590.75
2022-09-05T07:24:14.872Z,99598.25
2022-09-05T07:28:26.369Z,99587.53
2022-09-05T07:31:33.640Z,99597.06
2022-09-05T07:34:28.542Z,99596.28
2022-09-05T07:37:22.138Z,99593.88
2022-09-05T07:40:25.845Z,99583.56
2022-09-05T07:43:28.747Z,99592.69
2022-09-05T07:46:23.346Z,99592.25
2022-09-05T07:49:16.946Z,99596.25
2022-09-05T07:56:56.644Z,99588.31
2022-09-05T07:56:59.650Z,99590.69
2022-09-05T07:58:44.045Z,99587.94
2022-09-05T08:01:30.036Z,99590.31
2022-09-05T08:04:32.287Z,99587.88
2022-09-05T08:07:50.059Z,99579.53
2022-09-05T08:11:23.566Z,99578.75
2022-09-05T08:14:35.455Z,99585.91
2022-09-05T08:17:29.930Z,99574.81
2022-09-05T08:20:49.633Z,99586.28
2022-09-05T08:23:46.331Z,99582.28
2022-09-05T08:26:39.397Z,99573.97
2022-09-05T08:29:43.526Z,99579.13
2022-09-05T08:32:41.526Z,99576.34
2022-09-05T08:35:41.049Z,99577.91
2022-09-05T08:38:28.767Z,99581.84
2022-09-05T08:41:50.202Z,99573.09
2022-09-05T08:46:41.611Z,99571.50
2022-09-05T08:48:17.277Z,99567.53
2022-09-05T08:51:11.114Z,99567.53
2022-09-05T08:54:14.925Z,99562.34
2022-09-05T08:57:42.135Z,99561.13
2022-09-05T09:00:32.604Z,99555.97
2022-09-05T09:04:10.741Z,99553.19
2022-09-05T09:07:50.943Z,99553.56
2022-09-05T09:10:59.902Z,99553.94
2022-09-05T09:14:04.278Z,99549.94
2022-09-05T09:17:14.225Z,99546.38
2022-09-05T09:20:21.194Z,99553.50
2022-09-05T09:23:40.434Z,99554.69
2022-09-05T09:26:35.991Z,99549.13
2022-09-05T09:29:21.997Z,99543.16
2022-09-05T09:32:13.674Z,99545.53
2022-09-05T09:35:14.362Z,99547.06
2022-09-05T09:38:26.352Z,99542.72
2022-09-05T09:41:53.081Z,99543.06
2022-09-05T09:45:22.945Z,99539.09
2022-09-05T09:48:08.579Z,99541.81
2022-09-05T09:51:38.446Z,99533.84
2022-09-05T09:54:40.300Z,99537.00
2022-09-05T09:57:25.588Z,99540.16
2022-09-05T10:00:21.214Z,99537.75
2022-09-05T10:09:28.761Z,99528.22
2022-09-05T10:10:51.623Z,99522.59
2022-09-05T10:10:54.450Z,99518.63
2022-09-05T10:13:26.882Z,99524.97
2022-09-05T10:16:31.327Z,99517.75
2022-09-05T10:23:14.485Z,99511.34
2022-09-05T10:26:27.790Z,99516.06
2022-09-05T10:29:42.574Z,99509.69
2022-09-05T10:35:09.738Z,99498.94
2022-09-05T10:36:23.191Z,99504.06
2022-09-05T10:39:27.131Z,99507.28
2022-09-05T10:42:43.491Z,99504.19
2022-09-05T10:45:57.491Z,99498.63
2022-09-05T10:48:54.714Z,99500.25
2022-09-05T10:52:18.708Z,99501.81
2022-09-05T10:55:22.789Z,99494.69
2022-09-05T10:58:22.132Z,99489.16
2022-09-05T11:02:26.037Z,99496.34
2022-09-05T11:05:19.405Z,99497.56
2022-09-05T11:08:07.985Z,99492.81
2022-09-05T11:11:32.524Z,99494.03
2022-09-05T11:14:35.276Z,99495.22
2022-09-05T11:17:23.387Z,99498.00
2022-09-05T11:20:45.533Z,99499.59
2022-09-05T11:23:39.336Z,99500.78
2022-09-05T11:26:52.931Z,99498.00
2022-09-05T11:30:03.125Z,99503.56
2022-09-05T11:37:32.108Z,99507.94
2022-09-05T11:40:08.917Z,99511.91
2022-09-05T11:40:31.149Z,99506.78
2022-09-05T11:43:43.664Z,99509.97
2022-09-05T11:46:44.282Z,99503.63
2022-09-05T11:49:32.730Z,99504.41
2022-09-05T11:52:55.602Z,99498.84
2022-09-05T11:56:09.127Z,99502.41
2022-09-05T11:59:32.998Z,99500.44
2022-09-05T12:03:05.266Z,99496.06
2022-09-05T12:06:11.378Z,99495.28
2022-09-05T12:09:25.627Z,99493.28
2022-09-05T12:12:40.923Z,99492.88
2022-09-05T12:15:34.099Z,99496.81
2022-09-05T12:18:39.836Z,99471.81
2022-09-05T12:21:38.224Z,99478.94
2022-09-05T12:25:25.210Z,99483.66
2022-09-05T12:27:46.076Z,99477.69
2022-09-05T12:30:36.397Z,99474.91
2022-09-05T12:36:04.117Z,99469.34
2022-09-05T12:39:52.069Z,99471.34
2022-09-05T12:41:35.631Z,99466.56
2022-09-05T12:44:38.219Z,99464.22
2022-09-05T12:46:38.234Z,99459.03
2022-09-05T12:49:37.100Z,99461.44
2022-09-05T12:52:39.543Z,99459.44
2022-09-05T12:55:33.800Z,99458.28
2022-09-05T13:03:05.981Z,99462.63
2022-09-05T13:03:08.336Z,99461.06
2022-09-05T13:05:02.168Z,99456.69
2022-09-05T13:07:56.234Z,99451.16
2022-09-05T13:14:27.659Z,99465.41
2022-09-05T13:14:54.758Z,99459.44
2022-09-05T13:17:06.260Z,99460.19
2022-09-05T13:19:52.522Z,99457.34
2022-09-05T13:22:48.572Z,99455.78
2022-09-05T13:25:37.198Z,99451.44
2022-09-05T13:28:27.694Z,99455.03
2022-09-05T13:35:27.148Z,99459.03
2022-09-05T13:38:10.025Z,99456.63
2022-09-05T13:38:17.738Z,99455.81
2022-09-05T13:41:00.176Z,99447.06
2022-09-05T13:43:46.174Z,99448.66
2022-09-05T13:46:40.850Z,99448.22
2022-09-05T13:49:55.583Z,99447.44
2022-09-05T13:52:55.326Z,99440.66
2022-09-05T13:56:03.364Z,99442.25
2022-09-05T13:58:57.226Z,99433.50
2022-09-05T14:02:20.061Z,99433.50
2022-09-05T14:05:48.919Z,99417.97
2022-09-05T14:12:11.689Z,99424.66
2022-09-05T14:15:10.477Z,99411.13
2022-09-05T14:18:00.412Z,99415.84
2022-09-05T14:21:17.051Z,99410.66
2022-09-05T14:24:13.603Z,99426.84
2022-09-05T14:27:00.450Z,99417.28
2022-09-05T14:29:52.275Z,99416.47
2022-09-05T14:37:49.873Z,99410.81
2022-09-05T14:37:54.601Z,99416.34
2022-09-05T14:39:38.538Z,99414.28
2022-09-05T14:42:46.023Z,99413.38
2022-09-05T14:45:40.575Z,99416.94
2022-09-05T14:48:53.466Z,99411.75
2022-09-05T14:51:43.285Z,99409.69
2022-09-05T15:02:44.170Z,99401.59
2022-09-05T15:02:52.810Z,99399.16
2022-09-05T15:07:23.665Z,99390.69
2022-09-05T15:12:14.647Z,99387.84
2022-09-05T15:13:25.979Z,99390.91
2022-09-05T15:16:14.858Z,99387.75
2022-09-05T15:19:01.527Z,99382.16
2022-09-05T15:21:47.231Z,99389.28
2022-09-05T15:24:32.861Z,99382.94
2022-09-05T15:27:19.048Z,99384.84
2022-09-05T15:30:06.556Z,99382.78
2022-09-05T15:33:15.696Z,99384.00
2022-09-05T15:36:02.811Z,99387.16
2022-09-05T15:38:56.036Z,99385.16
2022-09-05T15:41:43.459Z,99385.03
2022-09-05T15:44:32.303Z,99384.97
2022-09-05T15:47:25.280Z,99384.16
2022-09-05T15:50:21.376Z,99390.09
2022-09-05T15:53:21.960Z,99389.97
2022-09-05T15:56:10.335Z,99399.09
2022-09-05T15:59:00.245Z,99405.03
2022-09-05T16:01:59.616Z,99408.66
2022-09-05T16:10:34.909Z,99410.16
2022-09-05T16:10:38.382Z,99407.66
2022-09-05T16:15:27.832Z,99414.78
2022-09-05T16:23:29.887Z,99414.75
2022-09-05T16:23:30.072Z,99411.94
2022-09-05T16:24:59.287Z,99409.94
2022-09-05T16:27:55.007Z,99417.09
2022-09-05T16:30:40.991Z,99417.94
2022-09-05T16:33:30.533Z,99412.00
2022-09-05T16:36:29.451Z,99410.88
2022-09-05T16:39:20.944Z,99406.09
2022-09-05T16:42:17.096Z,99401.38
2022-09-05T16:45:27.589Z,99386.69
2022-09-05T16:48:31.195Z,99389.47
2022-09-05T16:51:41.991Z,99387.97
2022-09-05T16:54:40.319Z,99391.97
2022-09-05T16:57:36.080Z,99388.81
2022-09-05T17:00:21.469Z,99399.66
2022-09-05T17:03:45.492Z,99401.69
2022-09-05T17:06:45.837Z,99391.38
2022-09-05T17:09:37.171Z,99395.38
2022-09-05T17:12:31.534Z,99392.59
2022-09-05T17:15:52.010Z,99382.66
2022-09-05T17:18:39.176Z,99386.31
2022-09-05T17:24:24.497Z,99380.38
2022-09-05T17:29:20.332Z,99389.13
2022-09-05T17:29:32.752Z,99394.78
2022-09-05T17:34:18.630Z,99400.75
2022-09-05T17:37:29.099Z,99403.97
2022-09-05T17:40:59.480Z,99400.75
2022-09-05T17:43:58.077Z,99402.00
2022-09-05T17:46:58.169Z,99397.19
2022-09-05T17:49:46.070Z,99405.56
2022-09-05T17:52:41.643Z,99404.03
2022-09-05T17:55:47.855Z,99406.88
2022-09-05T17:58:49.591Z,99411.66
2022-09-05T18:01:36.738Z,99406.88
2022-09-05T18:04:45.355Z,99414.50
2022-09-05T18:07:35.482Z,99411.72
2022-09-05T18:10:27.253Z,99422.06
2022-09-05T18:13:31.822Z,99420.94
2022-09-05T18:16:43.677Z,99409.03
2022-09-05T18:19:43.995Z,99421.78
2022-09-05T18:22:35.891Z,99429.75
2022-09-05T18:25:33.718Z,99425.03
2022-09-05T18:28:22.532Z,99429.81
2022-09-05T18:31:41.285Z,99430.22
2022-09-05T18:34:37.465Z,99433.09
2022-09-05T18:37:38.217Z,99424.75
2022-09-05T18:41:00.550Z,99431.50
2022-09-05T18:44:13.699Z,99435.91
2022-09-05T18:47:32.905Z,99428.44
2022-09-05T18:50:27.588Z,99435.19
2022-09-05T18:53:25.090Z,99428.13
2022-09-05T18:56:21.056Z,99423.38
2022-09-05T18:59:16.037Z,99421.41
2022-09-05T19:02:08.532Z,99430.97
2022-09-05T19:05:28.335Z,99420.69
2022-09-05T19:08:38.580Z,99423.47
2022-09-05T19:11:52.853Z,99419.50
2022-09-05T19:14:47.395Z,99418.25
2022-09-05T19:17:47.074Z,99424.31
2022-09-05T19:21:11.777Z,99413.97
2022-09-05T19:24:04.598Z,99417.97
2022-09-05T19:27:09.523Z,99414.84
2022-09-05T19:36:47.436Z,99413.25
2022-09-05T19:37:07.382Z,99408.91
2022-09-05T19:37:08.889Z,99411.28
2022-09-05T19:43:01.296Z,99405.25
2022-09-05T19:47:38.729Z,99407.69
2022-09-05T19:47:51.474Z,99400.94
2022-09-05T19:49:16.253Z,99409.69
2022-09-05T19:52:16.432Z,99406.91
2022-09-05T19:55:02.291Z,99409.31
2022-09-05T19:58:18.587Z,99406.13
2022-09-05T20:01:06.043Z,99402.19
2022-09-05T20:03:54.105Z,99396.28
2022-09-05T20:06:39.353Z,99402.97
2022-09-05T20:09:26.178Z,99392.25
2022-09-05T20:12:23.564Z,99387.16
2022-09-05T20:15:27.891Z,99386.34
2022-09-05T20:18:28.349Z,99390.38
2022-09-05T20:21:20.699Z,99386.84
2022-09-05T20:24:06.459Z,99395.94
2022-09-05T20:26:52.176Z,99401.50
2022-09-05T20:29:54.869Z,99392.81
2022-09-05T20:32:52.362Z,99401.59
2022-09-05T20:41:48.643Z,99402.41
2022-09-05T20:43:20.493Z,99396.06
2022-09-05T20:43:22.135Z,99396.84
2022-09-05T20:47:41.986Z,99382.53
2022-09-05T20:54:06.987Z,99392.88
2022-09-05T20:54:15.603Z,99383.34
2022-09-05T20:55:41.990Z,99384.13
2022-09-05T20:58:31.561Z,99389.34
2022-09-05T21:01:22.930Z,99387.34
2022-09-05T21:04:08.732Z,99390.56
2022-09-05T21:07:12.465Z,99388.97
2022-09-05T21:10:00.218Z,99384.19
2022-09-05T21:12:50.970Z,99388.19
2022-09-05T21:15:52.954Z,99394.16
2022-09-05T21:18:42.285Z,99392.97
2022-09-05T21:21:30.278Z,99390.22
2022-09-05T21:24:23.911Z,99392.22
2022-09-05T21:27:25.389Z,99390.59
2022-09-05T21:30:44.841Z,99396.56
2022-09-05T21:33:45.143Z,99385.09
2022-09-05T21:36:30.993Z,99375.19
2022-09-05T21:39:19.122Z,99380.75
2022-09-05T21:42:58.284Z,99383.16
2022-09-05T21:47:43.997Z,99385.56
2022-09-05T21:48:15.815Z,99385.56
2022-09-05T21:51:11.487Z,99386.78
2022-09-05T21:59:13.468Z,99376.09
2022-09-05T21:59:28.369Z,99384.41
2022-09-05T22:00:34.214Z,99376.94
2022-09-05T22:03:20.728Z,99367.75
2022-09-05T22:06:11.731Z,99375.72
2022-09-05T22:09:13.721Z,99373.78
2022-09-05T22:12:00.108Z,99374.19
2022-09-05T22:14:51.559Z,99368.28
2022-09-05T22:17:39.544Z,99374.19
2022-09-05T22:20:25.184Z,99368.28
2022-09-05T22:23:11.120Z,99374.59
2022-09-05T22:25:56.735Z,99369.06
2022-09-05T22:28:49.028Z,99367.50
2022-09-05T22:31:34.422Z,99360.78
2022-09-05T22:34:19.619Z,99368.34
2022-09-05T22:37:04.935Z,99365.56
2022-09-05T22:39:50.421Z,99362.78
2022-09-05T22:42:35.862Z,99363.19
2022-09-05T22:45:21.315Z,99360.06
2022-09-05T22:48:12.823Z,99368.38
2022-09-05T22:50:58.092Z,99350.50
2022-09-05T22:53:43.863Z,99359.28
2022-09-05T22:56:35.184Z,99354.97
2022-09-05T22:59:20.422Z,99348.63
2022-09-05T23:02:05.792Z,99340.28
2022-09-05T23:04:50.935Z,99343.50
2022-09-05T23:07:36.550Z,99340.28
2022-09-05T23:10:22.106Z,99341.13
2022-09-05T23:13:09.923Z,99338.75
2022-09-05T23:15:57.886Z,99337.19
2022-09-05T23:18:43.309Z,99341.97
2022-09-05T23:21:28.487Z,99333.22
2022-09-05T23:24:13.914Z,99320.94
2022-09-05T23:26:59.344Z,99326.94
2022-09-05T23:29:44.918Z,99323.34
2022-09-05T23:32:30.190Z,99309.53
2022-09-05T23:35:16.311Z,99304.00
2022-09-05T23:38:01.733Z,99303.63
2022-09-05T23:40:46.948Z,99300.84
2022-09-05T23:43:33.317Z,99302.41
2022-09-05T23:46:18.680Z,99302.41
2022-09-05T23:49:03.934Z,99300.00
2022-09-05T23:51:49.122Z,99302.41
2022-09-05T23:54:34.191Z,99298.84
2022-09-05T23:57:23.676Z,99298.47
